Willow, Michigan
Current Conditions -  °F | °C
As of 8:53 AM on Monday 26 Jan 2015 (Local Time) from KDTW Reporting Station
Scattered Clouds Scattered Clouds  
Wind Chill:   Ceiling: Unl
Heat Index: 14°   Visibility: 10mi
Dew Point:   Wind: 7mph
Humidity: 71%   Direction: 350°N
Pressure: 29.96"   Gusts: NA
Location:  42.1166°N, 83.4023°W
Report Text: KDTW 261353Z 35006KT 10SM FEW130 SCT220 M10/M14 A2996 RMK AO2 SLP155 T11001144
Loading
Personal Weather Stations






























Interactive Weather Map New forecast layout! Learn more

10-Day Weather Forecast

Advertisements
Track Severe Weather on mobile